sensor_id;sensor_type;location;lat;lon;timestamp;pressure;altitude;pressure_sealevel;temperature;humidity
38400;BME280;24180;42.676;23.320;2022-09-09T00:03:46;94981.09;;;18.09;100.00
38400;BME280;24180;42.676;23.320;2022-09-09T00:06:25;94978.78;;;17.99;100.00
38400;BME280;24180;42.676;23.320;2022-09-09T00:11:32;94986.56;;;17.93;100.00
38400;BME280;24180;42.676;23.320;2022-09-09T00:14:11;94980.31;;;17.79;100.00
38400;BME280;24180;42.676;23.320;2022-09-09T00:16:41;94981.31;;;17.78;100.00
38400;BME280;24180;42.676;23.320;2022-09-09T00:19:24;94975.34;;;17.84;100.00
38400;BME280;24180;42.676;23.320;2022-09-09T00:22:07;94975.81;;;17.88;100.00
38400;BME280;24180;42.676;23.320;2022-09-09T00:24:53;94961.53;;;17.75;100.00
38400;BME280;24180;42.676;23.320;2022-09-09T00:27:48;94950.72;;;17.64;100.00
38400;BME280;24180;42.676;23.320;2022-09-09T00:32:49;94947.50;;;17.54;100.00
38400;BME280;24180;42.676;23.320;2022-09-09T00:35:22;94950.34;;;17.52;100.00
38400;BME280;24180;42.676;23.320;2022-09-09T00:37:51;94931.94;;;17.60;100.00
38400;BME280;24180;42.676;23.320;2022-09-09T00:40:24;94932.81;;;17.53;100.00
38400;BME280;24180;42.676;23.320;2022-09-09T00:43:21;94933.34;;;17.48;100.00
38400;BME280;24180;42.676;23.320;2022-09-09T00:57:32;94933.19;;;17.35;100.00
38400;BME280;24180;42.676;23.320;2022-09-09T01:05:42;94925.69;;;17.32;100.00
38400;BME280;24180;42.676;23.320;2022-09-09T01:10:54;94930.94;;;17.32;100.00
38400;BME280;24180;42.676;23.320;2022-09-09T01:13:28;94932.34;;;17.20;100.00
38400;BME280;24180;42.676;23.320;2022-09-09T01:16:01;94931.63;;;17.11;100.00
38400;BME280;24180;42.676;23.320;2022-09-09T01:18:37;94932.59;;;17.10;100.00
38400;BME280;24180;42.676;23.320;2022-09-09T01:24:22;94929.09;;;17.03;100.00
38400;BME280;24180;42.676;23.320;2022-09-09T01:27:01;94920.88;;;16.92;100.00
38400;BME280;24180;42.676;23.320;2022-09-09T01:29:28;94905.25;;;16.83;100.00
38400;BME280;24180;42.676;23.320;2022-09-09T01:31:59;94919.97;;;16.84;100.00
38400;BME280;24180;42.676;23.320;2022-09-09T01:34:29;94919.59;;;16.88;100.00
38400;BME280;24180;42.676;23.320;2022-09-09T01:37:03;94927.44;;;16.88;100.00
38400;BME280;24180;42.676;23.320;2022-09-09T01:39:35;94929.59;;;16.84;100.00
38400;BME280;24180;42.676;23.320;2022-09-09T01:42:01;94939.41;;;16.82;100.00
38400;BME280;24180;42.676;23.320;2022-09-09T01:44:28;94933.09;;;16.76;100.00
38400;BME280;24180;42.676;23.320;2022-09-09T01:46:55;94931.09;;;16.78;100.00
38400;BME280;24180;42.676;23.320;2022-09-09T01:49:21;94929.75;;;16.82;100.00
38400;BME280;24180;42.676;23.320;2022-09-09T01:51:51;94933.63;;;16.72;100.00
38400;BME280;24180;42.676;23.320;2022-09-09T01:54:17;94941.22;;;16.81;100.00
38400;BME280;24180;42.676;23.320;2022-09-09T02:04:53;94934.00;;;16.83;100.00
38400;BME280;24180;42.676;23.320;2022-09-09T02:10:19;94940.50;;;16.73;100.00
38400;BME280;24180;42.676;23.320;2022-09-09T02:12:48;94932.16;;;16.69;100.00
38400;BME280;24180;42.676;23.320;2022-09-09T02:15:34;94919.31;;;16.82;100.00
38400;BME280;24180;42.676;23.320;2022-09-09T02:18:04;94915.41;;;16.78;100.00
38400;BME280;24180;42.676;23.320;2022-09-09T02:20:36;94914.06;;;16.68;100.00
38400;BME280;24180;42.676;23.320;2022-09-09T02:23:03;94914.59;;;16.63;100.00
38400;BME280;24180;42.676;23.320;2022-09-09T02:25:30;94919.34;;;16.60;100.00
38400;BME280;24180;42.676;23.320;2022-09-09T02:27:56;94916.53;;;16.61;100.00
38400;BME280;24180;42.676;23.320;2022-09-09T02:30:24;94918.38;;;16.61;100.00
38400;BME280;24180;42.676;23.320;2022-09-09T02:32:51;94922.78;;;16.60;100.00
38400;BME280;24180;42.676;23.320;2022-09-09T02:35:21;94922.41;;;16.63;100.00
38400;BME280;24180;42.676;23.320;2022-09-09T02:37:50;94930.94;;;16.57;100.00
38400;BME280;24180;42.676;23.320;2022-09-09T02:40:17;94935.19;;;16.58;100.00
38400;BME280;24180;42.676;23.320;2022-09-09T02:42:47;94936.00;;;16.59;100.00
38400;BME280;24180;42.676;23.320;2022-09-09T02:45:16;94932.81;;;16.49;100.00
38400;BME280;24180;42.676;23.320;2022-09-09T02:56:16;94933.59;;;16.49;100.00
38400;BME280;24180;42.676;23.320;2022-09-09T02:58:42;94930.31;;;16.32;100.00
38400;BME280;24180;42.676;23.320;2022-09-09T03:01:09;94940.28;;;16.29;100.00
38400;BME280;24180;42.676;23.320;2022-09-09T03:03:34;94931.03;;;16.41;100.00
38400;BME280;24180;42.676;23.320;2022-09-09T03:06:00;94930.19;;;16.26;100.00
38400;BME280;24180;42.676;23.320;2022-09-09T03:08:26;94932.72;;;16.34;100.00
38400;BME280;24180;42.676;23.320;2022-09-09T03:10:54;94938.88;;;16.41;100.00
38400;BME280;24180;42.676;23.320;2022-09-09T03:13:20;94938.31;;;16.31;100.00
38400;BME280;24180;42.676;23.320;2022-09-09T03:15:47;94940.94;;;16.31;100.00
38400;BME280;24180;42.676;23.320;2022-09-09T03:18:13;94939.00;;;16.25;100.00
38400;BME280;24180;42.676;23.320;2022-09-09T03:20:39;94928.91;;;16.22;100.00
38400;BME280;24180;42.676;23.320;2022-09-09T03:23:04;94927.25;;;16.21;100.00
38400;BME280;24180;42.676;23.320;2022-09-09T03:25:29;94937.66;;;16.29;100.00
38400;BME280;24180;42.676;23.320;2022-09-09T03:27:55;94929.81;;;16.29;100.00
38400;BME280;24180;42.676;23.320;2022-09-09T03:30:22;94933.44;;;16.28;100.00
38400;BME280;24180;42.676;23.320;2022-09-09T03:32:48;94939.41;;;16.14;100.00
38400;BME280;24180;42.676;23.320;2022-09-09T03:35:14;94946.91;;;16.17;100.00
38400;BME280;24180;42.676;23.320;2022-09-09T03:37:40;94934.22;;;16.06;100.00
38400;BME280;24180;42.676;23.320;2022-09-09T03:40:07;94934.22;;;16.06;100.00
38400;BME280;24180;42.676;23.320;2022-09-09T03:42:35;94930.13;;;16.11;100.00
38400;BME280;24180;42.676;23.320;2022-09-09T03:45:03;94933.84;;;16.17;100.00
38400;BME280;24180;42.676;23.320;2022-09-09T03:47:29;94937.03;;;16.04;100.00
38400;BME280;24180;42.676;23.320;2022-09-09T03:49:55;94939.16;;;16.01;100.00
38400;BME280;24180;42.676;23.320;2022-09-09T03:52:20;94935.91;;;15.99;100.00
38400;BME280;24180;42.676;23.320;2022-09-09T03:54:47;94938.34;;;16.00;100.00
38400;BME280;24180;42.676;23.320;2022-09-09T03:57:13;94938.97;;;16.02;100.00
38400;BME280;24180;42.676;23.320;2022-09-09T03:59:43;94936.22;;;16.04;100.00
38400;BME280;24180;42.676;23.320;2022-09-09T04:02:09;94936.66;;;16.07;100.00
38400;BME280;24180;42.676;23.320;2022-09-09T04:04:34;94946.16;;;16.08;100.00
38400;BME280;24180;42.676;23.320;2022-09-09T04:07:00;94943.69;;;16.07;100.00
38400;BME280;24180;42.676;23.320;2022-09-09T04:09:26;94938.78;;;16.12;100.00
38400;BME280;24180;42.676;23.320;2022-09-09T04:11:52;94948.53;;;16.18;100.00
38400;BME280;24180;42.676;23.320;2022-09-09T04:14:19;94945.56;;;16.21;100.00
38400;BME280;24180;42.676;23.320;2022-09-09T04:16:45;94944.47;;;16.15;100.00
38400;BME280;24180;42.676;23.320;2022-09-09T04:19:11;94940.69;;;16.18;100.00
38400;BME280;24180;42.676;23.320;2022-09-09T04:21:39;94945.38;;;16.22;100.00
38400;BME280;24180;42.676;23.320;2022-09-09T04:24:06;94939.00;;;16.25;100.00
38400;BME280;24180;42.676;23.320;2022-09-09T04:26:32;94935.25;;;16.27;100.00
38400;BME280;24180;42.676;23.320;2022-09-09T04:28:58;94940.28;;;16.29;100.00
38400;BME280;24180;42.676;23.320;2022-09-09T04:31:23;94943.06;;;16.27;100.00
38400;BME280;24180;42.676;23.320;2022-09-09T04:33:50;94943.53;;;16.31;100.00
38400;BME280;24180;42.676;23.320;2022-09-09T04:36:16;94946.56;;;16.43;100.00
38400;BME280;24180;42.676;23.320;2022-09-09T04:38:43;94949.00;;;16.44;100.00
38400;BME280;24180;42.676;23.320;2022-09-09T04:41:09;94954.88;;;16.46;100.00
38400;BME280;24180;42.676;23.320;2022-09-09T04:43:37;94962.34;;;16.49;100.00
38400;BME280;24180;42.676;23.320;2022-09-09T04:46:03;94953.44;;;16.66;100.00
38400;BME280;24180;42.676;23.320;2022-09-09T04:48:29;94959.47;;;16.67;100.00
38400;BME280;24180;42.676;23.320;2022-09-09T04:50:58;94941.72;;;16.62;100.00
38400;BME280;24180;42.676;23.320;2022-09-09T04:53:24;94942.63;;;16.69;100.00
38400;BME280;24180;42.676;23.320;2022-09-09T04:55:50;94941.13;;;16.75;100.00
38400;BME280;24180;42.676;23.320;2022-09-09T04:58:16;94951.22;;;16.78;100.00
38400;BME280;24180;42.676;23.320;2022-09-09T05:00:42;94945.38;;;16.91;100.00
38400;BME280;24180;42.676;23.320;2022-09-09T05:03:07;94947.13;;;16.98;100.00
38400;BME280;24180;42.676;23.320;2022-09-09T05:05:34;94946.25;;;17.20;100.00
38400;BME280;24180;42.676;23.320;2022-09-09T05:08:07;94937.66;;;17.12;100.00
38400;BME280;24180;42.676;23.320;2022-09-09T05:10:34;94923.69;;;17.19;100.00
38400;BME280;24180;42.676;23.320;2022-09-09T05:13:01;94924.97;;;17.23;100.00
38400;BME280;24180;42.676;23.320;2022-09-09T05:15:27;94937.41;;;17.36;100.00
38400;BME280;24180;42.676;23.320;2022-09-09T05:18:03;94957.66;;;17.57;100.00
38400;BME280;24180;42.676;23.320;2022-09-09T05:20:28;94957.66;;;17.57;100.00
38400;BME280;24180;42.676;23.320;2022-09-09T05:22:55;94934.63;;;17.52;100.00
38400;BME280;24180;42.676;23.320;2022-09-09T05:25:22;94945.38;;;17.57;100.00
38400;BME280;24180;42.676;23.320;2022-09-09T05:27:51;94951.59;;;17.71;100.00
38400;BME280;24180;42.676;23.320;2022-09-09T05:30:16;94945.09;;;17.82;100.00
38400;BME280;24180;42.676;23.320;2022-09-09T05:32:44;94939.75;;;17.90;100.00
38400;BME280;24180;42.676;23.320;2022-09-09T05:35:09;94946.94;;;18.02;100.00
38400;BME280;24180;42.676;23.320;2022-09-09T05:37:35;94950.16;;;18.19;100.00
38400;BME280;24180;42.676;23.320;2022-09-09T05:40:00;94942.19;;;18.27;100.00
38400;BME280;24180;42.676;23.320;2022-09-09T05:42:30;94947.19;;;18.43;100.00
38400;BME280;24180;42.676;23.320;2022-09-09T05:44:56;94950.25;;;18.47;100.00
38400;BME280;24180;42.676;23.320;2022-09-09T05:47:21;94957.22;;;18.54;100.00
38400;BME280;24180;42.676;23.320;2022-09-09T05:49:47;94951.63;;;18.57;100.00
38400;BME280;24180;42.676;23.320;2022-09-09T05:52:12;94954.03;;;18.80;100.00
38400;BME280;24180;42.676;23.320;2022-09-09T05:54:37;94947.16;;;18.79;100.00
38400;BME280;24180;42.676;23.320;2022-09-09T05:57:04;94957.09;;;18.84;100.00
38400;BME280;24180;42.676;23.320;2022-09-09T05:59:31;94960.41;;;18.92;100.00
38400;BME280;24180;42.676;23.320;2022-09-09T06:01:58;94944.81;;;18.91;100.00
38400;BME280;24180;42.676;23.320;2022-09-09T06:04:24;94961.69;;;19.03;100.00
38400;BME280;24180;42.676;23.320;2022-09-09T06:06:50;94971.75;;;18.99;100.00
38400;BME280;24180;42.676;23.320;2022-09-09T06:09:15;94974.81;;;19.03;100.00
38400;BME280;24180;42.676;23.320;2022-09-09T06:11:42;94979.91;;;19.11;100.00
38400;BME280;24180;42.676;23.320;2022-09-09T06:14:09;94977.16;;;19.19;100.00
38400;BME280;24180;42.676;23.320;2022-09-09T06:16:35;94965.69;;;19.27;100.00
38400;BME280;24180;42.676;23.320;2022-09-09T06:19:03;94971.03;;;19.40;100.00
38400;BME280;24180;42.676;23.320;2022-09-09T06:21:34;94965.97;;;19.38;100.00
38400;BME280;24180;42.676;23.320;2022-09-09T06:24:04;94973.72;;;19.46;100.00
38400;BME280;24180;42.676;23.320;2022-09-09T06:26:32;94979.06;;;19.59;100.00
38400;BME280;24180;42.676;23.320;2022-09-09T06:28:58;94978.25;;;19.59;100.00
38400;BME280;24180;42.676;23.320;2022-09-09T06:31:27;94982.53;;;19.67;100.00
38400;BME280;24180;42.676;23.320;2022-09-09T06:33:56;94981.63;;;19.81;100.00
38400;BME280;24180;42.676;23.320;2022-09-09T06:36:30;94972.75;;;19.82;100.00
38400;BME280;24180;42.676;23.320;2022-09-09T06:38:56;94965.31;;;19.92;100.00
38400;BME280;24180;42.676;23.320;2022-09-09T06:41:24;94960.28;;;20.03;100.00
38400;BME280;24180;42.676;23.320;2022-09-09T06:43:51;94964.63;;;20.18;100.00
38400;BME280;24180;42.676;23.320;2022-09-09T06:46:19;94963.22;;;20.28;100.00
38400;BME280;24180;42.676;23.320;2022-09-09T06:48:45;94968.56;;;20.48;100.00
38400;BME280;24180;42.676;23.320;2022-09-09T06:51:13;94971.63;;;20.58;100.00
38400;BME280;24180;42.676;23.320;2022-09-09T06:53:41;94979.94;;;20.68;100.00
38400;BME280;24180;42.676;23.320;2022-09-09T06:58:45;94978.53;;;20.98;100.00
38400;BME280;24180;42.676;23.320;2022-09-09T07:01:16;94983.44;;;21.01;100.00
38400;BME280;24180;42.676;23.320;2022-09-09T07:03:44;94986.06;;;21.08;100.00
38400;BME280;24180;42.676;23.320;2022-09-09T07:06:15;94981.22;;;21.25;100.00
38400;BME280;24180;42.676;23.320;2022-09-09T07:08:43;94973.53;;;21.36;100.00
38400;BME280;24180;42.676;23.320;2022-09-09T07:11:09;94984.03;;;21.56;100.00
38400;BME280;24180;42.676;23.320;2022-09-09T07:13:36;94978.75;;;21.63;100.00
38400;BME280;24180;42.676;23.320;2022-09-09T07:16:10;94980.78;;;21.74;100.00
38400;BME280;24180;42.676;23.320;2022-09-09T07:18:36;94978.69;;;21.89;100.00
38400;BME280;24180;42.676;23.320;2022-09-09T07:21:03;94981.88;;;22.11;100.00
38400;BME280;24180;42.676;23.320;2022-09-09T07:23:29;94968.88;;;22.22;100.00
38400;BME280;24180;42.676;23.320;2022-09-09T07:25:55;94970.66;;;22.28;100.00
38400;BME280;24180;42.676;23.320;2022-09-09T07:28:21;94961.44;;;22.44;100.00
38400;BME280;24180;42.676;23.320;2022-09-09T07:31:01;94964.34;;;22.74;100.00
38400;BME280;24180;42.676;23.320;2022-09-09T07:33:31;94964.31;;;22.80;100.00
38400;BME280;24180;42.676;23.320;2022-09-09T07:41:11;94965.66;;;23.46;100.00
38400;BME280;24180;42.676;23.320;2022-09-09T07:43:45;94967.13;;;23.60;100.00
38400;BME280;24180;42.676;23.320;2022-09-09T07:46:13;94971.28;;;23.92;100.00
38400;BME280;24180;42.676;23.320;2022-09-09T07:48:51;94969.31;;;24.24;100.00
38400;BME280;24180;42.676;23.320;2022-09-09T07:51:24;94973.28;;;24.33;100.00
38400;BME280;24180;42.676;23.320;2022-09-09T07:53:54;94980.78;;;24.66;99.40
38400;BME280;24180;42.676;23.320;2022-09-09T07:56:19;94964.78;;;25.02;96.06
38400;BME280;24180;42.676;23.320;2022-09-09T07:58:49;94968.59;;;25.59;93.72
38400;BME280;24180;42.676;23.320;2022-09-09T08:01:18;94965.78;;;25.89;91.67
38400;BME280;24180;42.676;23.320;2022-09-09T08:03:45;94965.09;;;25.94;90.22
38400;BME280;24180;42.676;23.320;2022-09-09T08:06:12;94961.72;;;26.10;88.70
38400;BME280;24180;42.676;23.320;2022-09-09T08:08:39;94960.75;;;26.16;87.27
38400;BME280;24180;42.676;23.320;2022-09-09T08:11:12;94972.94;;;26.40;85.14
38400;BME280;24180;42.676;23.320;2022-09-09T08:13:39;94964.66;;;26.37;85.46
38400;BME280;24180;42.676;23.320;2022-09-09T08:16:17;94968.28;;;26.59;86.06
38400;BME280;24180;42.676;23.320;2022-09-09T08:18:43;94966.78;;;26.91;83.63
38400;BME280;24180;42.676;23.320;2022-09-09T08:21:15;94964.78;;;26.98;79.79
38400;BME280;24180;42.676;23.320;2022-09-09T08:23:43;94956.44;;;27.40;77.22
38400;BME280;24180;42.676;23.320;2022-09-09T08:26:18;94964.53;;;27.83;73.27
38400;BME280;24180;42.676;23.320;2022-09-09T08:28:53;94959.22;;;28.22;68.77
38400;BME280;24180;42.676;23.320;2022-09-09T08:31:21;94963.66;;;28.38;67.75
38400;BME280;24180;42.676;23.320;2022-09-09T08:33:48;94955.50;;;28.45;70.08
38400;BME280;24180;42.676;23.320;2022-09-09T08:36:19;94944.56;;;28.68;67.00
38400;BME280;24180;42.676;23.320;2022-09-09T08:38:50;94961.09;;;28.92;64.05
38400;BME280;24180;42.676;23.320;2022-09-09T08:41:22;94952.69;;;29.05;64.35
38400;BME280;24180;42.676;23.320;2022-09-09T08:52:26;94949.72;;;29.33;61.42
38400;BME280;24180;42.676;23.320;2022-09-09T08:54:58;94952.06;;;29.56;60.57
38400;BME280;24180;42.676;23.320;2022-09-09T08:57:28;94952.66;;;29.68;57.80
38400;BME280;24180;42.676;23.320;2022-09-09T08:59:54;94944.75;;;29.84;56.38
38400;BME280;24180;42.676;23.320;2022-09-09T09:02:46;94949.94;;;30.00;55.91
38400;BME280;24180;42.676;23.320;2022-09-09T09:14:59;94935.88;;;30.20;55.40
38400;BME280;24180;42.676;23.320;2022-09-09T09:17:43;94952.78;;;30.41;54.93
38400;BME280;24180;42.676;23.320;2022-09-09T09:20:15;94938.66;;;30.45;53.34
38400;BME280;24180;42.676;23.320;2022-09-09T09:22:48;94950.22;;;30.61;54.62
38400;BME280;24180;42.676;23.320;2022-09-09T09:25:27;94948.19;;;31.08;50.65
38400;BME280;24180;42.676;23.320;2022-09-09T09:28:18;94945.72;;;30.92;51.56
38400;BME280;24180;42.676;23.320;2022-09-09T09:33:19;94952.69;;;30.98;50.86
38400;BME280;24180;42.676;23.320;2022-09-09T09:35:51;94951.41;;;31.10;50.38
38400;BME280;24180;42.676;23.320;2022-09-09T09:38:25;94953.81;;;31.32;50.16
38400;BME280;24180;42.676;23.320;2022-09-09T09:40:53;94930.81;;;31.31;49.08
38400;BME280;24180;42.676;23.320;2022-09-09T09:43:31;94931.34;;;31.13;51.80
38400;BME280;24180;42.676;23.320;2022-09-09T09:45:57;94929.19;;;31.81;50.75
38400;BME280;24180;42.676;23.320;2022-09-09T09:48:25;94918.47;;;31.81;50.49
38400;BME280;24180;42.676;23.320;2022-09-09T09:51:00;94930.25;;;31.44;50.67
38400;BME280;24180;42.676;23.320;2022-09-09T09:53:29;94909.94;;;31.08;51.41
38400;BME280;24180;42.676;23.320;2022-09-09T09:56:00;94919.50;;;30.84;52.71
38400;BME280;24180;42.676;23.320;2022-09-09T09:58:30;94921.41;;;30.88;51.98
38400;BME280;24180;42.676;23.320;2022-09-09T10:00:57;94915.75;;;30.90;51.21
38400;BME280;24180;42.676;23.320;2022-09-09T10:03:29;94920.03;;;30.71;51.65
38400;BME280;24180;42.676;23.320;2022-09-09T10:05:56;94919.25;;;30.80;51.89
38400;BME280;24180;42.676;23.320;2022-09-09T10:08:23;94927.50;;;30.69;52.82
38400;BME280;24180;42.676;23.320;2022-09-09T10:11:28;94936.50;;;30.37;56.77
38400;BME280;24180;42.676;23.320;2022-09-09T10:17:04;94936.00;;;29.19;63.28
38400;BME280;24180;42.676;23.320;2022-09-09T10:19:34;94934.22;;;28.71;64.83
38400;BME280;24180;42.676;23.320;2022-09-09T10:22:26;94934.44;;;28.43;67.78
38400;BME280;24180;42.676;23.320;2022-09-09T10:33:51;94926.28;;;27.51;74.12
38400;BME280;24180;42.676;23.320;2022-09-09T10:36:26;94932.22;;;27.41;76.66
38400;BME280;24180;42.676;23.320;2022-09-09T10:41:44;94939.09;;;27.92;75.54
38400;BME280;24180;42.676;23.320;2022-09-09T10:50:16;94944.69;;;28.56;70.66
38400;BME280;24180;42.676;23.320;2022-09-09T10:52:57;94942.03;;;28.56;69.67
38400;BME280;24180;42.676;23.320;2022-09-09T10:55:37;94935.59;;;28.52;70.36
38400;BME280;24180;42.676;23.320;2022-09-09T10:58:11;94944.41;;;28.31;72.47
38400;BME280;24180;42.676;23.320;2022-09-09T11:00:50;94938.09;;;28.15;73.36
38400;BME280;24180;42.676;23.320;2022-09-09T11:03:26;94935.75;;;27.80;76.63
38400;BME280;24180;42.676;23.320;2022-09-09T11:06:05;94937.44;;;27.48;80.00
38400;BME280;24180;42.676;23.320;2022-09-09T11:08:35;94937.16;;;27.16;82.36
38400;BME280;24180;42.676;23.320;2022-09-09T11:11:11;94940.75;;;26.93;85.07
38400;BME280;24180;42.676;23.320;2022-09-09T11:13:59;94941.25;;;26.90;86.83
38400;BME280;24180;42.676;23.320;2022-09-09T11:19:00;94931.75;;;28.21;81.29
38400;BME280;24180;42.676;23.320;2022-09-09T11:21:46;94919.00;;;28.99;74.24
38400;BME280;24180;42.676;23.320;2022-09-09T11:24:49;94925.22;;;29.73;70.14
38400;BME280;24180;42.676;23.320;2022-09-09T11:30:12;94915.59;;;30.24;64.47
38400;BME280;24180;42.676;23.320;2022-09-09T11:41:50;94869.78;;;30.73;64.45
38400;BME280;24180;42.676;23.320;2022-09-09T11:44:25;94875.41;;;30.91;64.13
38400;BME280;24180;42.676;23.320;2022-09-09T11:46:53;94867.13;;;31.18;64.05
38400;BME280;24180;42.676;23.320;2022-09-09T11:49:39;94863.91;;;31.36;61.54
38400;BME280;24180;42.676;23.320;2022-09-09T11:52:39;94839.25;;;31.65;60.49
38400;BME280;24180;42.676;23.320;2022-09-09T11:55:31;94841.06;;;31.84;60.41
38400;BME280;24180;42.676;23.320;2022-09-09T11:57:59;94841.16;;;32.23;57.76
38400;BME280;24180;42.676;23.320;2022-09-09T12:00:38;94847.34;;;33.35;51.99
38400;BME280;24180;42.676;23.320;2022-09-09T12:03:06;94846.84;;;33.86;49.33
38400;BME280;24180;42.676;23.320;2022-09-09T12:05:51;94848.69;;;35.86;44.01
38400;BME280;24180;42.676;23.320;2022-09-09T12:08:27;94847.91;;;36.98;40.36
38400;BME280;24180;42.676;23.320;2022-09-09T12:10:55;94839.63;;;37.70;38.86
38400;BME280;24180;42.676;23.320;2022-09-09T12:13:23;94839.44;;;38.71;36.74
38400;BME280;24180;42.676;23.320;2022-09-09T12:18:33;94834.03;;;41.28;31.47
38400;BME280;24180;42.676;23.320;2022-09-09T12:27:28;94835.81;;;38.11;36.31
38400;BME280;24180;42.676;23.320;2022-09-09T12:30:09;94821.84;;;39.93;33.11
38400;BME280;24180;42.676;23.320;2022-09-09T12:32:36;94811.03;;;41.38;30.70
38400;BME280;24180;42.676;23.320;2022-09-09T12:35:11;94813.00;;;41.49;30.35
38400;BME280;24180;42.676;23.320;2022-09-09T12:37:44;94813.00;;;40.63;31.09
38400;BME280;24180;42.676;23.320;2022-09-09T12:40:21;94814.09;;;39.19;33.47
38400;BME280;24180;42.676;23.320;2022-09-09T12:42:47;94817.16;;;38.01;35.78
38400;BME280;24180;42.676;23.320;2022-09-09T12:45:19;94810.09;;;37.21;37.00
38400;BME280;24180;42.676;23.320;2022-09-09T12:47:53;94804.88;;;36.44;38.47
38400;BME280;24180;42.676;23.320;2022-09-09T12:50:25;94807.28;;;35.36;41.59
38400;BME280;24180;42.676;23.320;2022-09-09T12:52:54;94802.91;;;34.57;43.99
38400;BME280;24180;42.676;23.320;2022-09-09T12:55:27;94809.81;;;33.83;47.17
38400;BME280;24180;42.676;23.320;2022-09-09T12:57:56;94792.88;;;34.06;48.54
38400;BME280;24180;42.676;23.320;2022-09-09T13:00:24;94792.28;;;34.84;44.81
38400;BME280;24180;42.676;23.320;2022-09-09T13:02:58;94785.28;;;35.02;44.29
38400;BME280;24180;42.676;23.320;2022-09-09T13:05:34;94780.09;;;35.05;44.42
38400;BME280;24180;42.676;23.320;2022-09-09T13:08:01;94780.09;;;35.05;44.87
38400;BME280;24180;42.676;23.320;2022-09-09T13:10:29;94781.03;;;34.63;45.13
38400;BME280;24180;42.676;23.320;2022-09-09T13:12:57;94778.16;;;34.22;45.93
38400;BME280;24180;42.676;23.320;2022-09-09T13:15:24;94778.09;;;33.85;48.07
38400;BME280;24180;42.676;23.320;2022-09-09T13:17:59;94792.66;;;33.79;48.65
38400;BME280;24180;42.676;23.320;2022-09-09T13:20:27;94776.88;;;33.25;51.05
38400;BME280;24180;42.676;23.320;2022-09-09T13:22:54;94764.44;;;33.05;52.37
38400;BME280;24180;42.676;23.320;2022-09-09T13:25:27;94755.19;;;32.87;53.27
38400;BME280;24180;42.676;23.320;2022-09-09T13:28:05;94748.84;;;33.07;52.76
38400;BME280;24180;42.676;23.320;2022-09-09T13:30:36;94746.09;;;33.12;53.05
38400;BME280;24180;42.676;23.320;2022-09-09T13:35:48;94765.03;;;32.29;57.05
38400;BME280;24180;42.676;23.320;2022-09-09T13:38:15;94740.19;;;31.70;61.31
38400;BME280;24180;42.676;23.320;2022-09-09T13:43:25;94730.22;;;30.40;69.24
38400;BME280;24180;42.676;23.320;2022-09-09T13:46:00;94738.06;;;29.64;68.57
38400;BME280;24180;42.676;23.320;2022-09-09T13:48:27;94729.53;;;29.67;69.22
38400;BME280;24180;42.676;23.320;2022-09-09T13:51:03;94733.16;;;30.59;66.30
38400;BME280;24180;42.676;23.320;2022-09-09T13:53:32;94726.44;;;31.12;59.70
38400;BME280;24180;42.676;23.320;2022-09-09T13:55:58;94738.94;;;31.37;61.82
38400;BME280;24180;42.676;23.320;2022-09-09T13:58:24;94731.66;;;31.58;59.19
38400;BME280;24180;42.676;23.320;2022-09-09T14:00:52;94730.03;;;32.49;57.83
38400;BME280;24180;42.676;23.320;2022-09-09T14:03:18;94740.41;;;33.90;51.20
38400;BME280;24180;42.676;23.320;2022-09-09T14:05:44;94736.03;;;35.01;47.13
38400;BME280;24180;42.676;23.320;2022-09-09T14:08:16;94739.38;;;35.80;45.21
38400;BME280;24180;42.676;23.320;2022-09-09T14:10:45;94724.75;;;37.11;41.66
38400;BME280;24180;42.676;23.320;2022-09-09T14:13:11;94722.63;;;39.16;38.01
38400;BME280;24180;42.676;23.320;2022-09-09T14:15:37;94712.75;;;39.20;35.97
38400;BME280;24180;42.676;23.320;2022-09-09T14:18:03;94731.44;;;38.01;37.70
38400;BME280;24180;42.676;23.320;2022-09-09T14:20:29;94723.38;;;36.69;39.86
38400;BME280;24180;42.676;23.320;2022-09-09T14:22:54;94720.81;;;35.51;42.72
38400;BME280;24180;42.676;23.320;2022-09-09T14:25:20;94715.47;;;34.92;45.10
38400;BME280;24180;42.676;23.320;2022-09-09T14:27:45;94718.19;;;36.01;42.60
38400;BME280;24180;42.676;23.320;2022-09-09T14:30:11;94725.38;;;35.92;42.64
38400;BME280;24180;42.676;23.320;2022-09-09T14:32:37;94721.41;;;35.76;42.70
38400;BME280;24180;42.676;23.320;2022-09-09T14:35:03;94728.97;;;35.05;45.08
38400;BME280;24180;42.676;23.320;2022-09-09T14:37:35;94724.69;;;34.72;44.81
38400;BME280;24180;42.676;23.320;2022-09-09T14:40:02;94728.41;;;33.82;48.11
38400;BME280;24180;42.676;23.320;2022-09-09T14:42:40;94722.97;;;33.21;50.76
38400;BME280;24180;42.676;23.320;2022-09-09T14:45:07;94697.66;;;32.75;56.20
38400;BME280;24180;42.676;23.320;2022-09-09T14:47:32;94710.97;;;34.87;48.92
38400;BME280;24180;42.676;23.320;2022-09-09T14:49:57;94715.88;;;34.99;44.96
38400;BME280;24180;42.676;23.320;2022-09-09T14:52:23;94709.97;;;34.83;46.51
38400;BME280;24180;42.676;23.320;2022-09-09T14:54:49;94717.88;;;34.61;47.60
38400;BME280;24180;42.676;23.320;2022-09-09T14:57:14;94717.59;;;33.69;50.58
38400;BME280;24180;42.676;23.320;2022-09-09T14:59:40;94715.00;;;32.54;57.27
38400;BME280;24180;42.676;23.320;2022-09-09T15:02:08;94719.06;;;32.12;61.71
38400;BME280;24180;42.676;23.320;2022-09-09T15:04:33;94721.44;;;31.70;64.83
38400;BME280;24180;42.676;23.320;2022-09-09T15:06:59;94732.34;;;31.09;67.85
38400;BME280;24180;42.676;23.320;2022-09-09T15:09:24;94733.97;;;30.59;72.04